APD YSSY-YSTW
Flight info
| Callsign | APD |
|---|---|
| Flight time | N/A |
| Altitude | 17000 |
| Route | OLSEM H252 UPNEX/N0309F260 H140 MATLA/N0313F200 V258 TW |
| Aircraft | B350/L-SBGRW/S |
Departure
| Time | 2026-05-05 02:03 |
|---|---|
| Airport | Sydney Kingsford Smith International Airport (YSSY) |
Arrival
| Time | N/A |
|---|---|
| Airport | Tamworth Airport (YSTW) |
| Time | Latitude | Longitude | Altitude | Speed | Heading |
|---|---|---|---|---|---|
| 2026-05-05 01:41 | -33.93409 | 151.18848 | 144 ft | 0 kts | 188° |
| 2026-05-05 01:42 | -33.93412 | 151.18847 | 26 ft | 0 kts | 188° |
| 2026-05-05 01:55 | -33.93418 | 151.18847 | 26 ft | 4 kts | 176° |
| 2026-05-05 01:55 | -33.93472 | 151.18861 | 26 ft | 10 kts | 194° |
| 2026-05-05 01:56 | -33.93539 | 151.18846 | 28 ft | 10 kts | 187° |
| 2026-05-05 01:56 | -33.93594 | 151.18813 | 29 ft | 8 kts | 244° |
| 2026-05-05 01:56 | -33.93609 | 151.18755 | 29 ft | 8 kts | 255° |
| 2026-05-05 01:56 | -33.93624 | 151.18686 | 28 ft | 8 kts | 253° |
| 2026-05-05 01:57 | -33.93641 | 151.18615 | 28 ft | 11 kts | 254° |
| 2026-05-05 01:57 | -33.93661 | 151.18525 | 26 ft | 11 kts | 255° |
| 2026-05-05 01:57 | -33.93682 | 151.18431 | 26 ft | 12 kts | 251° |
| 2026-05-05 01:57 | -33.93707 | 151.18337 | 26 ft | 12 kts | 254° |
| 2026-05-05 01:58 | -33.93730 | 151.18240 | 26 ft | 12 kts | 253° |
| 2026-05-05 01:58 | -33.93753 | 151.18140 | 26 ft | 12 kts | 255° |
| 2026-05-05 01:58 | -33.93778 | 151.18040 | 26 ft | 13 kts | 253° |
| 2026-05-05 01:58 | -33.93801 | 151.17938 | 26 ft | 13 kts | 251° |
| 2026-05-05 01:59 | -33.93827 | 151.17836 | 28 ft | 13 kts | 252° |
| 2026-05-05 01:59 | -33.93891 | 151.17779 | 26 ft | 16 kts | 164° |
| 2026-05-05 01:59 | -33.94016 | 151.17809 | 25 ft | 20 kts | 168° |
| 2026-05-05 01:59 | -33.94161 | 151.17846 | 26 ft | 22 kts | 169° |
| 2026-05-05 02:00 | -33.94317 | 151.17886 | 26 ft | 24 kts | 168° |
| 2026-05-05 02:00 | -33.94473 | 151.17897 | 26 ft | 19 kts | 204° |
| 2026-05-05 02:00 | -33.94593 | 151.17902 | 26 ft | 17 kts | 170° |
| 2026-05-05 02:00 | -33.94717 | 151.17932 | 26 ft | 21 kts | 168° |
| 2026-05-05 02:01 | -33.94867 | 151.17971 | 26 ft | 23 kts | 167° |
| 2026-05-05 02:01 | -33.95028 | 151.18013 | 27 ft | 25 kts | 167° |
| 2026-05-05 02:01 | -33.95124 | 151.17973 | 27 ft | 13 kts | 255° |
| 2026-05-05 02:01 | -33.95144 | 151.17867 | 27 ft | 13 kts | 258° |
| 2026-05-05 02:02 | -33.95160 | 151.17755 | 25 ft | 13 kts | 287° |
| 2026-05-05 02:02 | -33.95024 | 151.17698 | 24 ft | 43 kts | 347° |
| 2026-05-05 02:02 | -33.94440 | 151.17544 | 26 ft | 120 kts | 344° |
| 2026-05-05 02:02 | -33.93466 | 151.17291 | 155 ft | 162 kts | 342° |
| 2026-05-05 02:03 | -33.92325 | 151.17001 | 770 ft | 169 kts | 342° |
| 2026-05-05 02:03 | -33.91187 | 151.16752 | 1619 ft | 166 kts | 345° |
| 2026-05-05 02:03 | -33.89997 | 151.16523 | 2227 ft | 175 kts | 351° |
| 2026-05-05 02:03 | -33.88796 | 151.16640 | 3032 ft | 178 kts | 11° |
| 2026-05-05 02:04 | -33.87567 | 151.17216 | 3499 ft | 201 kts | 26° |
| 2026-05-05 02:04 | -33.86362 | 151.18118 | 3843 ft | 222 kts | 32° |
| 2026-05-05 02:04 | -33.85052 | 151.19264 | 4150 ft | 235 kts | 37° |
| 2026-05-05 02:04 | -33.83799 | 151.20463 | 4867 ft | 224 kts | 36° |
| 2026-05-05 02:05 | -33.82425 | 151.21594 | 4363 ft | 264 kts | 32° |
| 2026-05-05 02:05 | -33.80782 | 151.22793 | 4525 ft | 266 kts | 29° |
| 2026-05-05 02:05 | -33.79221 | 151.23879 | 5033 ft | 258 kts | 30° |
| 2026-05-05 02:05 | -33.77601 | 151.24972 | 4959 ft | 271 kts | 26° |
| 2026-05-05 02:06 | -33.76018 | 151.25884 | 6075 ft | 225 kts | 21° |
| 2026-05-05 02:06 | -33.74707 | 151.26444 | 7423 ft | 191 kts | 13° |